createdAt,value
2018-07-19T00:00:46.012Z,24.10
2018-07-19T00:03:19.634Z,24.20
2018-07-19T00:05:48.721Z,24.20
2018-07-19T00:10:48.334Z,24.10
2018-07-19T00:13:17.938Z,24.00
2018-07-19T00:15:47.778Z,24.00
2018-07-19T00:20:51.543Z,23.90
2018-07-19T00:23:27.288Z,23.80
2018-07-19T00:25:58.074Z,23.90
2018-07-19T00:28:28.977Z,24.00
2018-07-19T00:31:04.059Z,23.90
2018-07-19T00:33:33.264Z,24.00
2018-07-19T00:36:03.322Z,24.00
2018-07-19T00:38:32.546Z,24.00
2018-07-19T00:41:03.269Z,24.00
2018-07-19T00:43:37.426Z,23.90
2018-07-19T00:46:07.818Z,23.90
2018-07-19T00:48:37.936Z,23.90
2018-07-19T00:53:42.433Z,23.80
2018-07-19T00:56:12.083Z,23.70
2018-07-19T00:58:41.760Z,23.70
2018-07-19T01:01:11.321Z,23.60
2018-07-19T02:25:40.393Z,23.60
2018-07-19T02:28:10.122Z,22.60
2018-07-19T02:30:39.491Z,22.60
2018-07-19T02:33:09.692Z,22.70
2018-07-19T02:35:39.825Z,22.80
2018-07-19T02:38:08.772Z,22.80
2018-07-19T02:40:39.179Z,22.90
2018-07-19T02:43:09.416Z,23.00
2018-07-19T02:45:39.805Z,23.00
2018-07-19T02:48:08.790Z,23.10
2018-07-19T02:50:38.488Z,23.10
2018-07-19T02:53:08.054Z,23.00
2018-07-19T02:55:37.409Z,23.00
2018-07-19T02:58:07.876Z,23.00
2018-07-19T03:00:41.731Z,23.00
2018-07-19T03:03:12.432Z,23.10
2018-07-19T03:05:42.781Z,23.00
2018-07-19T03:08:11.909Z,23.00
2018-07-19T03:10:43.616Z,23.00
2018-07-19T03:13:14.284Z,23.00
2018-07-19T03:15:44.155Z,22.80
2018-07-19T03:18:18.250Z,22.90
2018-07-19T03:20:47.544Z,22.90
2018-07-19T03:23:17.117Z,22.80
2018-07-19T03:25:46.091Z,22.80
2018-07-19T03:28:16.096Z,22.80
2018-07-19T03:30:45.628Z,22.80
2018-07-19T03:33:15.200Z,22.90
2018-07-19T03:35:45.884Z,22.90
2018-07-19T03:38:15.517Z,22.90
2018-07-19T03:40:44.516Z,22.90
2018-07-19T03:45:43.622Z,22.80
2018-07-19T03:48:12.905Z,22.80
2018-07-19T03:50:42.338Z,22.70
2018-07-19T03:53:13.437Z,22.70
2018-07-19T03:55:43.138Z,22.60
2018-07-19T03:58:18.782Z,22.50
2018-07-19T04:00:47.978Z,22.60
2018-07-19T04:03:16.878Z,22.70
2018-07-19T04:05:46.881Z,22.70
2018-07-19T04:08:16.137Z,22.70
2018-07-19T04:10:45.603Z,22.60
2018-07-19T04:13:14.902Z,22.60
2018-07-19T04:15:43.908Z,22.60
2018-07-19T04:18:17.195Z,22.50
2018-07-19T04:20:46.960Z,22.40
2018-07-19T04:23:17.233Z,22.60
2018-07-19T04:25:46.107Z,22.50
2018-07-19T04:28:15.607Z,22.60
2018-07-19T04:30:45.663Z,22.60
2018-07-19T04:33:15.676Z,22.50
2018-07-19T04:35:45.308Z,22.70
2018-07-19T04:38:15.369Z,22.60
2018-07-19T04:40:44.090Z,22.60
2018-07-19T04:43:13.180Z,22.60
2018-07-19T04:45:43.382Z,22.60
2018-07-19T04:48:18.373Z,22.50
2018-07-19T04:50:52.639Z,22.60
2018-07-19T04:53:21.610Z,22.50
2018-07-19T04:55:51.153Z,22.50
2018-07-19T04:58:20.373Z,22.50
2018-07-19T05:00:49.842Z,22.60
2018-07-19T05:03:19.521Z,22.50
2018-07-19T05:05:49.667Z,22.60
2018-07-19T05:08:19.532Z,22.50
2018-07-19T05:10:49.167Z,22.50
2018-07-19T05:13:17.936Z,22.40
2018-07-19T05:15:48.037Z,22.40
2018-07-19T05:18:19.553Z,22.40
2018-07-19T05:20:49.901Z,22.50
2018-07-19T05:23:19.386Z,22.40
2018-07-19T05:25:48.905Z,22.40
2018-07-19T05:28:18.831Z,22.40
2018-07-19T05:30:48.417Z,22.40
2018-07-19T05:33:19.018Z,22.50
2018-07-19T05:35:49.503Z,22.60
2018-07-19T05:38:19.196Z,22.50
2018-07-19T05:40:48.757Z,22.60
2018-07-19T05:43:18.740Z,22.40
2018-07-19T05:45:47.508Z,22.40
2018-07-19T05:48:21.832Z,22.50
2018-07-19T05:50:50.765Z,22.50
2018-07-19T05:53:20.607Z,22.40
2018-07-19T05:58:19.728Z,22.30
2018-07-19T06:00:49.986Z,22.30
2018-07-19T06:03:19.069Z,22.30
2018-07-19T06:05:53.173Z,22.30
2018-07-19T06:08:22.583Z,22.40
2018-07-19T06:10:51.889Z,22.40
2018-07-19T06:13:20.808Z,22.40
2018-07-19T06:15:49.789Z,22.40
2018-07-19T06:18:23.296Z,22.40
2018-07-19T06:20:52.188Z,22.50
2018-07-19T06:23:25.609Z,22.60
2018-07-19T06:25:59.848Z,22.60
2018-07-19T06:28:30.425Z,22.70
2018-07-19T06:31:00.018Z,22.80
2018-07-19T06:33:31.521Z,22.80
2018-07-19T06:36:01.220Z,22.80
2018-07-19T06:38:32.723Z,22.80
2018-07-19T06:41:02.395Z,22.90
2018-07-19T06:43:31.738Z,22.90
2018-07-19T06:46:00.675Z,22.90
2018-07-19T06:48:29.872Z,22.80
2018-07-19T06:50:59.919Z,22.90
2018-07-19T06:53:31.233Z,22.90
2018-07-19T06:56:00.541Z,23.00
2018-07-19T06:58:30.546Z,22.90
2018-07-19T07:00:59.578Z,22.90
2018-07-19T07:03:29.856Z,23.00
2018-07-19T07:05:59.425Z,23.10
2018-07-19T07:08:28.556Z,23.20
2018-07-19T07:10:59.533Z,23.20
2018-07-19T07:13:30.272Z,23.20
2018-07-19T07:16:00.132Z,23.30
2018-07-19T07:18:31.917Z,23.40
2018-07-19T07:21:01.286Z,23.60
2018-07-19T07:23:30.800Z,23.50
2018-07-19T07:26:01.370Z,23.50
2018-07-19T07:28:32.142Z,23.50
2018-07-19T07:31:02.500Z,23.50
2018-07-19T07:33:32.321Z,23.50
2018-07-19T07:36:01.604Z,23.50
2018-07-19T07:38:30.757Z,23.60
2018-07-19T07:41:01.269Z,23.60
2018-07-19T07:43:30.125Z,23.80
2018-07-19T07:46:00.618Z,23.90
2018-07-19T07:48:29.839Z,24.00
2018-07-19T07:50:59.048Z,24.00
2018-07-19T07:53:34.165Z,23.80
2018-07-19T07:56:03.590Z,23.80
2018-07-19T07:58:36.533Z,23.90
2018-07-19T08:01:06.581Z,23.90
2018-07-19T08:03:36.227Z,23.90
2018-07-19T08:06:05.725Z,24.00
2018-07-19T08:08:35.551Z,24.10
2018-07-19T08:11:05.731Z,24.10
2018-07-19T08:13:35.457Z,24.20
2018-07-19T08:16:04.473Z,24.20
2018-07-19T08:18:33.624Z,24.10
2018-07-19T08:21:03.137Z,24.20
2018-07-19T08:23:32.801Z,24.30
2018-07-19T08:26:02.686Z,24.40
2018-07-19T08:28:32.191Z,24.30
2018-07-19T08:31:00.972Z,24.30
2018-07-19T08:33:31.120Z,24.40
2018-07-19T08:36:01.025Z,24.50
2018-07-19T08:38:31.940Z,24.50
2018-07-19T08:41:00.968Z,24.50
2018-07-19T08:43:30.060Z,24.50
2018-07-19T08:45:59.168Z,24.50
2018-07-19T08:48:28.371Z,24.60
2018-07-19T08:50:58.674Z,24.70
2018-07-19T08:53:29.350Z,24.80
2018-07-19T08:58:28.071Z,24.80
2018-07-19T09:00:57.416Z,24.80
2018-07-19T09:03:26.859Z,24.80
2018-07-19T09:05:56.462Z,24.80
2018-07-19T09:08:26.087Z,24.80
2018-07-19T09:10:55.444Z,24.80
2018-07-19T09:13:24.640Z,24.90
2018-07-19T09:15:54.156Z,24.90
2018-07-19T09:18:23.140Z,24.90
2018-07-19T09:20:52.661Z,25.00
2018-07-19T09:23:21.732Z,25.20
2018-07-19T09:25:51.716Z,25.30
2018-07-19T09:28:21.209Z,25.40
2018-07-19T09:30:50.208Z,25.60
2018-07-19T09:33:19.146Z,25.50
2018-07-19T09:35:49.743Z,25.60
2018-07-19T09:38:19.858Z,25.60
2018-07-19T09:40:48.990Z,25.80
2018-07-19T09:43:17.985Z,25.80
2018-07-19T09:45:46.760Z,25.90
2018-07-19T09:48:15.507Z,25.80
2018-07-19T09:50:48.254Z,25.80
2018-07-19T09:53:17.893Z,25.90
2018-07-19T09:55:48.494Z,25.90
2018-07-19T09:58:17.171Z,25.90
2018-07-19T10:00:56.265Z,25.90
2018-07-19T10:03:31.606Z,25.80
2018-07-19T10:06:04.893Z,25.90
2018-07-19T10:08:34.202Z,26.00
2018-07-19T10:11:04.033Z,26.10
2018-07-19T10:13:37.895Z,26.20
2018-07-19T10:16:08.284Z,26.30
2018-07-19T10:18:44.795Z,26.30
2018-07-19T10:21:14.509Z,26.30
2018-07-19T10:23:43.970Z,26.40
2018-07-19T10:26:12.674Z,26.30
2018-07-19T10:28:42.118Z,26.30
2018-07-19T10:31:11.965Z,26.40
2018-07-19T10:33:48.908Z,26.50
2018-07-19T10:36:19.019Z,26.50
2018-07-19T10:38:48.172Z,26.60
2018-07-19T10:41:21.931Z,26.70
2018-07-19T10:48:48.817Z,26.70
2018-07-19T10:51:18.796Z,26.80
2018-07-19T10:53:53.167Z,26.90
2018-07-19T10:56:23.304Z,26.90
2018-07-19T10:58:57.106Z,27.00
2018-07-19T11:01:33.852Z,27.00
2018-07-19T11:04:03.376Z,27.10
2018-07-19T11:09:01.261Z,27.40
2018-07-19T11:11:30.842Z,27.40
2018-07-19T11:13:59.521Z,27.50
2018-07-19T11:16:29.482Z,27.50
2018-07-19T11:18:58.193Z,27.50
2018-07-19T11:21:28.232Z,27.50
2018-07-19T11:23:56.966Z,27.60
2018-07-19T11:26:26.205Z,27.70
2018-07-19T11:28:56.247Z,27.80
2018-07-19T11:31:26.561Z,28.00
2018-07-19T11:33:55.495Z,28.00
2018-07-19T11:36:24.739Z,28.20
2018-07-19T11:38:58.197Z,28.20
2018-07-19T11:41:30.447Z,28.20
2018-07-19T11:44:00.410Z,28.20
2018-07-19T11:46:29.620Z,28.20
2018-07-19T11:48:59.050Z,28.20
2018-07-19T11:51:29.172Z,28.30
2018-07-19T11:53:59.165Z,28.50
2018-07-19T11:56:29.921Z,28.30
2018-07-19T11:59:00.990Z,28.20
2018-07-19T12:01:34.182Z,28.10
2018-07-19T12:06:32.558Z,28.20
2018-07-19T12:09:01.993Z,28.40
2018-07-19T12:11:30.787Z,28.50
2018-07-19T12:14:00.827Z,28.30
2018-07-19T12:16:30.042Z,28.30
2018-07-19T12:18:59.720Z,28.40
2018-07-19T12:21:29.105Z,28.50
2018-07-19T12:23:59.211Z,28.70
2018-07-19T12:26:32.895Z,28.80
2018-07-19T12:29:03.664Z,28.80
2018-07-19T12:31:32.596Z,28.90
2018-07-19T12:34:01.881Z,28.80
2018-07-19T12:36:30.675Z,28.80
2018-07-19T12:38:59.874Z,28.80
2018-07-19T12:41:29.565Z,28.90
2018-07-19T12:43:59.389Z,28.80
2018-07-19T12:46:28.620Z,28.80
2018-07-19T12:49:00.390Z,28.90
2018-07-19T12:51:29.679Z,29.00
2018-07-19T12:53:59.249Z,29.10
2018-07-19T12:56:31.280Z,28.90
2018-07-19T12:58:59.977Z,29.10
2018-07-19T13:01:28.905Z,29.20
2018-07-19T13:03:58.992Z,29.30
2018-07-19T13:06:28.604Z,29.30
2018-07-19T13:08:57.913Z,29.40
2018-07-19T13:11:27.244Z,29.60
2018-07-19T13:13:56.890Z,29.60
2018-07-19T13:16:26.046Z,29.60
2018-07-19T13:18:55.419Z,29.60
2018-07-19T13:21:24.701Z,29.60
2018-07-19T13:23:55.189Z,29.60
2018-07-19T13:26:29.052Z,29.60
2018-07-19T13:28:58.838Z,29.70
2018-07-19T13:31:41.190Z,29.70
2018-07-19T13:34:10.428Z,29.70
2018-07-19T13:36:39.238Z,29.80
2018-07-19T13:39:10.219Z,30.00
2018-07-19T13:41:40.921Z,30.20
2018-07-19T13:44:14.229Z,30.30
2018-07-19T13:46:43.380Z,30.30
2018-07-19T13:49:12.258Z,30.50
2018-07-19T13:51:40.935Z,30.60
2018-07-19T13:54:21.586Z,30.80
2018-07-19T13:56:51.013Z,30.70
2018-07-19T13:59:20.109Z,30.70
2018-07-19T14:01:49.440Z,30.70
2018-07-19T14:04:19.433Z,30.90
2018-07-19T14:06:49.065Z,31.10
2018-07-19T14:09:17.733Z,31.20
2018-07-19T14:11:46.514Z,31.00
2018-07-19T15:36:14.827Z,31.00
2018-07-19T15:38:43.569Z,31.90
2018-07-19T15:41:12.561Z,31.90
2018-07-19T15:43:41.216Z,31.90
2018-07-19T15:46:09.868Z,32.00
2018-07-19T15:48:39.276Z,32.00
2018-07-19T15:51:08.112Z,32.20
2018-07-19T15:53:37.409Z,32.40
2018-07-19T15:56:07.461Z,32.40
2018-07-19T15:58:36.114Z,32.60
2018-07-19T16:01:05.711Z,32.80
2018-07-19T16:03:35.135Z,32.80
2018-07-19T16:06:04.154Z,32.80
2018-07-19T16:08:32.788Z,33.00
2018-07-19T16:11:02.337Z,33.00
2018-07-19T16:13:31.608Z,33.20
2018-07-19T16:16:04.938Z,33.40
2018-07-19T16:18:33.555Z,33.20
2018-07-19T16:23:30.987Z,33.40
2018-07-19T16:25:59.941Z,33.70
2018-07-19T16:28:28.977Z,33.80
2018-07-19T16:31:02.873Z,33.70
2018-07-19T16:33:32.018Z,33.60
2018-07-19T16:36:00.800Z,33.80
2018-07-19T16:38:29.528Z,34.00
2018-07-19T16:40:58.761Z,34.00
2018-07-19T16:43:29.873Z,34.00
2018-07-19T16:46:01.424Z,33.90
2018-07-19T16:48:30.102Z,34.00
2018-07-19T16:50:58.774Z,34.00
2018-07-19T16:53:27.609Z,34.00
2018-07-19T16:55:57.035Z,34.00
2018-07-19T16:58:25.859Z,33.90
2018-07-19T17:00:55.572Z,34.10
2018-07-19T17:03:25.270Z,34.10
2018-07-19T17:05:54.112Z,34.00
2018-07-19T17:08:23.231Z,34.00
2018-07-19T17:10:52.866Z,33.80
2018-07-19T17:13:22.310Z,33.80
2018-07-19T17:15:51.229Z,33.30
2018-07-19T17:18:20.385Z,33.50
2018-07-19T17:20:50.534Z,33.30
2018-07-19T17:23:19.566Z,33.20
2018-07-19T17:25:50.494Z,33.20
2018-07-19T17:28:20.724Z,33.20
2018-07-19T17:30:51.873Z,33.40
2018-07-19T17:33:20.793Z,33.30
2018-07-19T17:35:49.989Z,33.20
2018-07-19T17:38:19.251Z,33.10
2018-07-19T17:40:48.566Z,33.10
2018-07-19T17:43:17.524Z,32.80
2018-07-19T17:45:46.584Z,33.00
2018-07-19T17:48:15.977Z,32.90
2018-07-19T17:50:45.133Z,32.80
2018-07-19T17:53:13.972Z,32.60
2018-07-19T17:55:43.319Z,32.30
2018-07-19T17:58:12.074Z,32.10
2018-07-19T18:00:41.180Z,32.10
2018-07-19T18:03:10.926Z,31.80
2018-07-19T18:05:39.965Z,31.70
2018-07-19T18:08:09.134Z,31.40
2018-07-19T18:10:39.282Z,31.20
2018-07-19T18:15:39.130Z,31.00
2018-07-19T18:18:09.587Z,31.00
2018-07-19T18:20:39.163Z,30.80
2018-07-19T18:23:08.584Z,30.80
2018-07-19T18:25:38.866Z,30.60
2018-07-19T18:28:08.536Z,30.60
2018-07-19T18:30:38.193Z,30.50
2018-07-19T18:33:12.089Z,30.40
2018-07-19T18:35:43.425Z,30.40
2018-07-19T18:38:16.851Z,30.30
2018-07-19T18:40:46.461Z,30.30
2018-07-19T18:43:15.928Z,30.30
2018-07-19T18:45:45.298Z,30.10
2018-07-19T18:48:15.452Z,30.00
2018-07-19T18:50:49.106Z,30.00
2018-07-19T18:53:17.948Z,29.80
2018-07-19T18:55:48.099Z,29.80
2018-07-19T18:58:17.561Z,29.80
2018-07-19T19:00:52.193Z,29.80
2018-07-19T19:03:22.641Z,29.70
2018-07-19T19:05:52.963Z,29.60
2018-07-19T19:08:23.143Z,29.60
2018-07-19T19:10:52.819Z,29.70
2018-07-19T19:13:24.621Z,29.60
2018-07-19T19:15:53.832Z,29.50
2018-07-19T19:18:23.698Z,29.40
2018-07-19T19:20:52.704Z,29.40
2018-07-19T19:23:26.401Z,29.40
2018-07-19T19:25:55.600Z,29.40
2018-07-19T19:28:24.984Z,29.40
2018-07-19T19:30:59.572Z,29.40
2018-07-19T19:33:29.390Z,29.40
2018-07-19T19:35:58.443Z,29.30
2018-07-19T19:38:28.707Z,29.30
2018-07-19T19:40:57.650Z,29.30
2018-07-19T19:43:26.365Z,29.20
2018-07-19T19:45:57.884Z,29.00
2018-07-19T19:48:27.766Z,28.90
2018-07-19T19:50:57.971Z,28.60
2018-07-19T19:53:27.785Z,28.40
2018-07-19T19:55:58.064Z,28.40
2018-07-19T19:58:33.532Z,28.40
2018-07-19T20:01:04.428Z,28.40
2018-07-19T20:03:33.291Z,28.40
2018-07-19T20:06:02.202Z,28.40
2018-07-19T20:08:31.569Z,28.40
2018-07-19T20:11:00.875Z,28.40
2018-07-19T20:13:38.290Z,28.40
2018-07-19T20:16:07.375Z,28.40
2018-07-19T20:18:37.787Z,28.40
2018-07-19T20:21:06.755Z,28.30
2018-07-19T20:23:36.238Z,28.30
2018-07-19T20:26:05.548Z,28.20
2018-07-19T20:28:34.318Z,28.20
2018-07-19T20:31:03.596Z,28.20
2018-07-19T20:33:38.022Z,28.10
2018-07-19T20:36:06.965Z,28.10
2018-07-19T20:38:35.738Z,28.10
2018-07-19T20:43:33.375Z,27.90
2018-07-19T20:46:02.257Z,27.90
2018-07-19T20:48:30.956Z,27.80
2018-07-19T20:50:59.730Z,27.60
2018-07-19T20:53:29.233Z,27.50
2018-07-19T20:55:58.516Z,27.40
2018-07-19T20:58:27.238Z,27.30
2018-07-19T21:00:56.511Z,27.40
2018-07-19T21:03:26.098Z,27.20
2018-07-19T21:05:54.917Z,27.10
2018-07-19T21:08:24.211Z,27.00
2018-07-19T21:10:53.925Z,26.80
2018-07-19T21:13:23.533Z,26.70
2018-07-19T21:15:52.633Z,26.70
2018-07-19T21:18:22.467Z,26.80
2018-07-19T21:20:52.199Z,26.80
2018-07-19T21:23:21.634Z,26.70
2018-07-19T21:25:50.937Z,26.70
2018-07-19T21:28:19.704Z,26.80
2018-07-19T21:30:55.802Z,26.70
2018-07-19T21:33:24.958Z,26.80
2018-07-19T21:35:54.646Z,26.70
2018-07-19T21:38:23.505Z,26.70
2018-07-19T21:40:53.221Z,26.80
2018-07-19T21:43:22.042Z,26.80
2018-07-19T21:48:28.106Z,26.60
2018-07-19T21:50:56.911Z,26.40
2018-07-19T21:53:26.547Z,26.30
2018-07-19T21:55:55.529Z,26.40
2018-07-19T21:58:24.341Z,26.50
2018-07-19T22:00:58.961Z,26.60
2018-07-19T22:03:28.554Z,26.60
2018-07-19T22:06:02.502Z,26.70
2018-07-19T22:08:32.401Z,26.70
2018-07-19T22:11:02.646Z,26.60
2018-07-19T22:13:32.849Z,26.60
2018-07-19T22:16:03.971Z,26.60
2018-07-19T22:18:32.759Z,26.60
2018-07-19T22:21:01.881Z,26.60
2018-07-19T22:23:30.757Z,26.70
2018-07-19T22:25:59.603Z,26.60
2018-07-19T22:28:28.940Z,26.50
2018-07-19T22:30:58.677Z,26.50
2018-07-19T22:33:28.888Z,26.40
2018-07-19T22:35:58.511Z,26.40
2018-07-19T22:38:27.315Z,26.40
2018-07-19T22:40:57.998Z,26.40
2018-07-19T22:43:27.148Z,26.30
2018-07-19T22:45:56.442Z,26.30
2018-07-19T22:48:25.865Z,26.30
2018-07-19T22:50:54.694Z,26.30
2018-07-19T22:55:53.219Z,26.40
2018-07-19T22:58:24.535Z,26.40
2018-07-19T23:00:53.543Z,26.30
2018-07-19T23:03:22.621Z,26.30
2018-07-19T23:05:52.208Z,26.30
2018-07-19T23:08:21.918Z,26.20
2018-07-19T23:10:51.525Z,26.30
2018-07-19T23:13:24.866Z,26.30
2018-07-19T23:15:54.708Z,26.20
2018-07-19T23:18:23.533Z,26.10
2018-07-19T23:20:53.319Z,26.00
2018-07-19T23:23:22.737Z,25.70
2018-07-19T23:25:51.553Z,25.60
2018-07-19T23:28:20.352Z,25.30
2018-07-19T23:30:49.776Z,25.20
2018-07-19T23:33:18.644Z,25.20
2018-07-19T23:35:58.351Z,25.20
2018-07-19T23:38:40.103Z,25.20
2018-07-19T23:41:29.833Z,25.20
2018-07-19T23:44:06.616Z,25.30
2018-07-19T23:46:41.511Z,25.20
2018-07-19T23:49:11.055Z,25.00
2018-07-19T23:51:41.866Z,24.90
2018-07-19T23:54:10.641Z,24.80
2018-07-19T23:56:40.419Z,24.70
2018-07-19T23:59:09.425Z,24.60
